Stephen Scott — WCW8842 — position and weather

sailwx.info

Track history (hours):
 
Tides and Currents Weather Stations Pressure Air Temp Water Temp Dewpoint Dewpoint Depression Visibility Wind Speed Wind Dir Waves Ship Positions

Stephen Scott

Owner: REINAUER TRANSPORTATION CO.LLC., STATEN ISLAND, NY. More information available from US FCC via Universal Licensing System and Coast Guard Vessel Documentation Center.

Last reported at 2016-Jun-24 01:33 UTC. Time now 2016-Sep-28 17:10 UTC.
Position N 40°38' W 074°12'.
Warning: this ship's position is months out of date.

Length 30 m; draft 3 m.

Type: Tug. MMSI: 366245490.

Date/timePositionNaut miles runAvg speedWind from/ knotsBaromVisibWave heightAir tempDewpointWater temp
2016-Jun-24 01:33N 40°38' W 074°12'3 0.2
2016-Jun-23 10:33N 40°36' W 074°12'0 0.0
2016-Jun-23 09:06N 40°36' W 074°12'0 0.0
2016-Jun-23 08:32N 40°36' W 074°12'0 0.0
2016-Jun-23 07:32N 40°36' W 074°12'0 0.0
2016-Jun-23 05:26N 40°36' W 074°12'1 0.8
2016-Jun-23 04:30N 40°36' W 074°12'1 0.9
2016-Jun-23 03:20N 40°38' W 074°12'1 0.2
2016-Jun-22 23:08N 40°38' W 074°12'711.3
2016-Jun-22 22:33N 40°39' W 074°03'2 1.9
2016-Jun-22 21:33N 40°40' W 074°01'2 1.6
2016-Jun-22 20:33N 40°39' W 074°03'4 0.5
2016-Jun-22 12:15N 40°38' W 074°08'4 0.9
2016-Jun-22 08:21N 40°37' W 074°12'7 9.1
2016-Jun-22 07:33N 40°40' W 074°03'2 1.8
2016-Jun-22 06:32N 40°40' W 074°01'0 0.0
2016-Jun-22 04:32N 40°40' W 074°01'0 0.0
2016-Jun-22 03:32N 40°40' W 074°01'0 0.1
2016-Jun-22 02:31N 40°40' W 074°01'4 0.3
2016-Jun-21 12:28N 40°39' W 074°07'4 4.1
2016-Jun-21 11:24N 40°40' W 074°01'0 0.0
2016-Jun-21 10:33N 40°40' W 074°01'0 0.0
2016-Jun-21 09:30N 40°40' W 074°01'0 0.0
2016-Jun-21 08:33N 40°40' W 074°01'0 0.0
2016-Jun-21 07:23N 40°40' W 074°01'0 0.0
2016-Jun-21 06:32N 40°40' W 074°01'0 0.0
2016-Jun-21 04:32N 40°40' W 074°01'0 0.0
2016-Jun-21 03:32N 40°40' W 074°01'0 0.0
2016-Jun-21 02:32N 40°40' W 074°01'0 0.0
2016-Jun-21 01:32N 40°40' W 074°01'0 0.0
2016-Jun-21 00:32N 40°40' W 074°01'0 0.0
2016-Jun-20 23:32N 40°40' W 074°01'0 0.0
2016-Jun-20 22:32N 40°40' W 074°01'0 0.1
2016-Jun-20 21:32N 40°40' W 074°01'0 0.0
2016-Jun-20 20:32N 40°40' W 074°01'0 0.0
2016-Jun-20 19:32N 40°40' W 074°01'0 0.0
2016-Jun-20 18:32N 40°40' W 074°01'0 0.0
2016-Jun-20 17:32N 40°40' W 074°01'0 0.0
2016-Jun-20 16:32N 40°40' W 074°01'0 0.0
2016-Jun-20 15:32N 40°40' W 074°01'0 0.0
2016-Jun-20 14:32N 40°40' W 074°01'0 0.0
2016-Jun-20 13:32N 40°40' W 074°01'0 0.0
2016-Jun-20 12:32N 40°40' W 074°01'0 0.0
2016-Jun-20 11:32N 40°40' W 074°01'0 0.0
2016-Jun-20 10:32N 40°40' W 074°01'0 0.0
2016-Jun-20 09:32N 40°40' W 074°01'0 0.0
2016-Jun-20 08:32N 40°40' W 074°01'0 0.0
2016-Jun-20 07:33N 40°40' W 074°01'4 4.2
2016-Jun-20 06:31N 40°39' W 074°06'4 3.7
2016-Jun-20 05:33N 40°42' W 074°07'7 7.1
2016-Jun-20 04:31N 40°36' W 074°12'3 0.4
2016-Jun-19 19:31N 40°39' W 074°10'4 4.3
2016-Jun-19 18:33N 40°42' W 074°07'7 0.4
2016-Jun-19 02:33N 40°36' W 074°12'1 0.3
2016-Jun-18 21:28N 40°35' W 074°12'6 7.0
2016-Jun-18 20:33N 40°39' W 074°06'4 3.7
2016-Jun-18 19:33N 40°40' W 074°01'0 0.1
2016-Jun-18 18:32N 40°40' W 074°01'5 5.3
2016-Jun-18 17:33N 40°45' W 073°58'1 0.4
2016-Jun-18 13:32N 40°46' W 073°57'8 8.0
2016-Jun-18 12:33N 40°39' W 074°02'4 3.4
2016-Jun-18 11:18N 40°38' W 074°08'0 0.0
2016-Jun-18 10:27N 40°38' W 074°08'0 0.0
2016-Jun-18 09:18N 40°38' W 074°08'0 0.0
2016-Jun-18 07:21N 40°38' W 074°08'1 1.2
2016-Jun-18 06:32N 40°39' W 074°07'1 0.3
2016-Jun-18 02:33N 40°38' W 074°08'0 0.0
2016-Jun-18 01:32N 40°38' W 074°08'0 0.0
2016-Jun-18 00:33N 40°38' W 074°08'0 0.0
2016-Jun-17 23:34N 40°38' W 074°08'5 5.4
2016-Jun-17 22:33N 40°40' W 074°01'6 6.1
2016-Jun-17 21:33N 40°39' W 074°09'4 4.1
2016-Jun-17 20:33N 40°42' W 074°07'0 0.4
2016-Jun-17 19:25N 40°43' W 074°07'4 5.2
2016-Jun-17 18:34N 40°39' W 074°09'5 4.6
2016-Jun-17 17:31N 40°40' W 074°03'0 0.0
2016-Jun-17 16:34N 40°40' W 074°03'0 0.0
2016-Jun-17 15:33N 40°40' W 074°03'0 0.0
2016-Jun-17 14:33N 40°40' W 074°03'0 0.0
2016-Jun-17 13:33N 40°40' W 074°03'1 0.8
2016-Jun-17 12:33N 40°39' W 074°03'3 3.3
2016-Jun-17 11:33N 40°39' W 074°08'4 3.7
2016-Jun-17 10:33N 40°42' W 074°07'0 0.2
2016-Jun-17 09:33N 40°42' W 074°07'3 2.8
2016-Jun-17 08:33N 40°40' W 074°08'9 7.3
2016-Jun-17 07:21N 40°33' W 074°15'8 3.0
2016-Jun-17 04:33N 40°39' W 074°07'5 5.0
2016-Jun-17 03:32N 40°40' W 074°01'0 0.0
2016-Jun-17 02:32N 40°40' W 074°01'0 0.0
2016-Jun-17 01:32N 40°40' W 074°01'0 0.0
2016-Jun-17 00:32N 40°40' W 074°01'0 0.0
2016-Jun-16 23:32N 40°40' W 074°01'0 0.0
2016-Jun-16 22:33N 40°40' W 074°01'0 0.0
2016-Jun-16 21:33N 40°40' W 074°01'0 0.0
2016-Jun-16 20:32N 40°40' W 074°01'0 0.0
2016-Jun-16 19:33N 40°40' W 074°01'2 1.6
2016-Jun-16 18:31N 40°39' W 074°03'0 0.0
2016-Jun-16 17:31N 40°39' W 074°03'0 0.0
2016-Jun-16 16:31N 40°39' W 074°03'0 0.0
2016-Jun-16 15:31N 40°39' W 074°03'0 0.1
2016-Jun-16 14:31N 40°39' W 074°03'0 0.0
2016-Jun-16 13:31N 40°39' W 074°03'0 0.1
2016-Jun-16 12:31N 40°39' W 074°02'2 2.5
2016-Jun-16 11:33N 40°39' W 074°06'0 0.1
2016-Jun-16 10:33N 40°39' W 074°06'4 0.5
2016-Jun-16 02:29N 40°39' W 074°11'4 3.4
2016-Jun-16 01:13N 40°35' W 074°13'5 7.7
2016-Jun-16 00:33N 40°39' W 074°09'1 0.7
2016-Jun-15 23:31N 40°38' W 074°08'0 0.0
2016-Jun-15 22:31N 40°38' W 074°08'0 0.0
2016-Jun-15 21:31N 40°38' W 074°08'0 0.0
2016-Jun-15 20:31N 40°38' W 074°08'0 0.0
2016-Jun-15 19:31N 40°38' W 074°08'0 0.0
2016-Jun-15 18:31N 40°38' W 074°08'0 0.0
2016-Jun-15 17:31N 40°38' W 074°08'0 0.0
2016-Jun-15 16:31N 40°38' W 074°08'0 0.0
2016-Jun-15 15:31N 40°38' W 074°08'0 0.0
2016-Jun-15 14:28N 40°38' W 074°08'0 0.0
2016-Jun-15 13:31N 40°38' W 074°08'0 0.0
2016-Jun-15 12:31N 40°38' W 074°08'0 0.0
2016-Jun-15 11:31N 40°38' W 074°08'5 5.0
2016-Jun-15 10:33N 40°40' W 074°02'1 0.8
2016-Jun-15 09:33N 40°40' W 074°01'0 0.1
2016-Jun-15 08:31N 40°40' W 074°01'8 8.2
2016-Jun-15 07:33N 40°39' W 074°11'4 0.2
2016-Jun-14 13:04N 40°35' W 074°13'5 9.0
2016-Jun-14 12:33N 40°39' W 074°10'2 1.6
2016-Jun-14 11:22N 40°38' W 074°08'1 1.1
2016-Jun-14 10:33N 40°39' W 074°07'4 4.0
2016-Jun-14 09:34N 40°40' W 074°02'1 0.7
2016-Jun-14 08:33N 40°40' W 074°01'0 0.0
2016-Jun-14 07:33N 40°40' W 074°01'0 0.0
2016-Jun-14 04:33N 40°40' W 074°01'0 0.0
2016-Jun-14 03:27N 40°40' W 074°01'0 0.0
2016-Jun-14 02:33N 40°40' W 074°01'  
Track history (hours):
 
Tides and Currents Weather Stations Pressure Air Temp Water Temp Dewpoint Dewpoint Depression Visibility Wind Speed Wind Dir Waves Ship Positions

Stephen Scott

Owner: REINAUER TRANSPORTATION CO.LLC., STATEN ISLAND, NY. More information available from US FCC via Universal Licensing System and Coast Guard Vessel Documentation Center.

Last reported at 2016-Jun-24 01:33 UTC. Time now 2016-Sep-28 17:10 UTC.
Position N 40°38' W 074°12'.
Warning: this ship's position is months out of date.

Length 30 m; draft 3 m.

Type: Tug. MMSI: 366245490.

Date/timePositionNaut miles runAvg speedWind from/ knotsBaromVisibWave heightAir tempDewpointWater temp
2016-Jun-24 01:33N 40°38' W 074°12'3 0.2
2016-Jun-23 10:33N 40°36' W 074°12'0 0.0
2016-Jun-23 09:06N 40°36' W 074°12'0 0.0
2016-Jun-23 08:32N 40°36' W 074°12'0 0.0
2016-Jun-23 07:32N 40°36' W 074°12'0 0.0
2016-Jun-23 05:26N 40°36' W 074°12'1 0.8
2016-Jun-23 04:30N 40°36' W 074°12'1 0.9
2016-Jun-23 03:20N 40°38' W 074°12'1 0.2
2016-Jun-22 23:08N 40°38' W 074°12'711.3
2016-Jun-22 22:33N 40°39' W 074°03'2 1.9
2016-Jun-22 21:33N 40°40' W 074°01'2 1.6
2016-Jun-22 20:33N 40°39' W 074°03'4 0.5
2016-Jun-22 12:15N 40°38' W 074°08'4 0.9
2016-Jun-22 08:21N 40°37' W 074°12'7 9.1
2016-Jun-22 07:33N 40°40' W 074°03'2 1.8
2016-Jun-22 06:32N 40°40' W 074°01'0 0.0
2016-Jun-22 04:32N 40°40' W 074°01'0 0.0
2016-Jun-22 03:32N 40°40' W 074°01'0 0.1
2016-Jun-22 02:31N 40°40' W 074°01'4 0.3
2016-Jun-21 12:28N 40°39' W 074°07'4 4.1
2016-Jun-21 11:24N 40°40' W 074°01'0 0.0
2016-Jun-21 10:33N 40°40' W 074°01'0 0.0
2016-Jun-21 09:30N 40°40' W 074°01'0 0.0
2016-Jun-21 08:33N 40°40' W 074°01'0 0.0
2016-Jun-21 07:23N 40°40' W 074°01'0 0.0
2016-Jun-21 06:32N 40°40' W 074°01'0 0.0
2016-Jun-21 04:32N 40°40' W 074°01'0 0.0
2016-Jun-21 03:32N 40°40' W 074°01'0 0.0
2016-Jun-21 02:32N 40°40' W 074°01'0 0.0
2016-Jun-21 01:32N 40°40' W 074°01'0 0.0
2016-Jun-21 00:32N 40°40' W 074°01'0 0.0
2016-Jun-20 23:32N 40°40' W 074°01'0 0.0
2016-Jun-20 22:32N 40°40' W 074°01'0 0.1
2016-Jun-20 21:32N 40°40' W 074°01'0 0.0
2016-Jun-20 20:32N 40°40' W 074°01'0 0.0
2016-Jun-20 19:32N 40°40' W 074°01'0 0.0
2016-Jun-20 18:32N 40°40' W 074°01'0 0.0
2016-Jun-20 17:32N 40°40' W 074°01'0 0.0
2016-Jun-20 16:32N 40°40' W 074°01'0 0.0
2016-Jun-20 15:32N 40°40' W 074°01'0 0.0
2016-Jun-20 14:32N 40°40' W 074°01'0 0.0
2016-Jun-20 13:32N 40°40' W 074°01'0 0.0
2016-Jun-20 12:32N 40°40' W 074°01'0 0.0
2016-Jun-20 11:32N 40°40' W 074°01'0 0.0
2016-Jun-20 10:32N 40°40' W 074°01'0 0.0
2016-Jun-20 09:32N 40°40' W 074°01'0 0.0
2016-Jun-20 08:32N 40°40' W 074°01'0 0.0
2016-Jun-20 07:33N 40°40' W 074°01'4 4.2
2016-Jun-20 06:31N 40°39' W 074°06'4 3.7
2016-Jun-20 05:33N 40°42' W 074°07'7 7.1
2016-Jun-20 04:31N 40°36' W 074°12'3 0.4
2016-Jun-19 19:31N 40°39' W 074°10'4 4.3
2016-Jun-19 18:33N 40°42' W 074°07'7 0.4
2016-Jun-19 02:33N 40°36' W 074°12'1 0.3
2016-Jun-18 21:28N 40°35' W 074°12'6 7.0
2016-Jun-18 20:33N 40°39' W 074°06'4 3.7
2016-Jun-18 19:33N 40°40' W 074°01'0 0.1
2016-Jun-18 18:32N 40°40' W 074°01'5 5.3
2016-Jun-18 17:33N 40°45' W 073°58'1 0.4
2016-Jun-18 13:32N 40°46' W 073°57'8 8.0
2016-Jun-18 12:33N 40°39' W 074°02'4 3.4
2016-Jun-18 11:18N 40°38' W 074°08'0 0.0
2016-Jun-18 10:27N 40°38' W 074°08'0 0.0
2016-Jun-18 09:18N 40°38' W 074°08'0 0.0
2016-Jun-18 07:21N 40°38' W 074°08'1 1.2
2016-Jun-18 06:32N 40°39' W 074°07'1 0.3
2016-Jun-18 02:33N 40°38' W 074°08'0 0.0
2016-Jun-18 01:32N 40°38' W 074°08'0 0.0
2016-Jun-18 00:33N 40°38' W 074°08'0 0.0
2016-Jun-17 23:34N 40°38' W 074°08'5 5.4
2016-Jun-17 22:33N 40°40' W 074°01'6 6.1
2016-Jun-17 21:33N 40°39' W 074°09'4 4.1
2016-Jun-17 20:33N 40°42' W 074°07'0 0.4
2016-Jun-17 19:25N 40°43' W 074°07'4 5.2
2016-Jun-17 18:34N 40°39' W 074°09'5 4.6
2016-Jun-17 17:31N 40°40' W 074°03'0 0.0
2016-Jun-17 16:34N 40°40' W 074°03'0 0.0
2016-Jun-17 15:33N 40°40' W 074°03'0 0.0
2016-Jun-17 14:33N 40°40' W 074°03'0 0.0
2016-Jun-17 13:33N 40°40' W 074°03'1 0.8
2016-Jun-17 12:33N 40°39' W 074°03'3 3.3
2016-Jun-17 11:33N 40°39' W 074°08'4 3.7
2016-Jun-17 10:33N 40°42' W 074°07'0 0.2
2016-Jun-17 09:33N 40°42' W 074°07'3 2.8
2016-Jun-17 08:33N 40°40' W 074°08'9 7.3
2016-Jun-17 07:21N 40°33' W 074°15'8 3.0
2016-Jun-17 04:33N 40°39' W 074°07'5 5.0
2016-Jun-17 03:32N 40°40' W 074°01'0 0.0
2016-Jun-17 02:32N 40°40' W 074°01'0 0.0
2016-Jun-17 01:32N 40°40' W 074°01'0 0.0
2016-Jun-17 00:32N 40°40' W 074°01'0 0.0
2016-Jun-16 23:32N 40°40' W 074°01'0 0.0
2016-Jun-16 22:33N 40°40' W 074°01'0 0.0
2016-Jun-16 21:33N 40°40' W 074°01'0 0.0
2016-Jun-16 20:32N 40°40' W 074°01'0 0.0
2016-Jun-16 19:33N 40°40' W 074°01'2 1.6
2016-Jun-16 18:31N 40°39' W 074°03'0 0.0
2016-Jun-16 17:31N 40°39' W 074°03'0 0.0
2016-Jun-16 16:31N 40°39' W 074°03'0 0.0
2016-Jun-16 15:31N 40°39' W 074°03'0 0.1
2016-Jun-16 14:31N 40°39' W 074°03'0 0.0
2016-Jun-16 13:31N 40°39' W 074°03'0 0.1
2016-Jun-16 12:31N 40°39' W 074°02'2 2.5
2016-Jun-16 11:33N 40°39' W 074°06'0 0.1
2016-Jun-16 10:33N 40°39' W 074°06'4 0.5
2016-Jun-16 02:29N 40°39' W 074°11'4 3.4
2016-Jun-16 01:13N 40°35' W 074°13'5 7.7
2016-Jun-16 00:33N 40°39' W 074°09'1 0.7
2016-Jun-15 23:31N 40°38' W 074°08'0 0.0
2016-Jun-15 22:31N 40°38' W 074°08'0 0.0
2016-Jun-15 21:31N 40°38' W 074°08'0 0.0
2016-Jun-15 20:31N 40°38' W 074°08'0 0.0
2016-Jun-15 19:31N 40°38' W 074°08'0 0.0
2016-Jun-15 18:31N 40°38' W 074°08'0 0.0
2016-Jun-15 17:31N 40°38' W 074°08'0 0.0
2016-Jun-15 16:31N 40°38' W 074°08'0 0.0
2016-Jun-15 15:31N 40°38' W 074°08'0 0.0
2016-Jun-15 14:28N 40°38' W 074°08'0 0.0
2016-Jun-15 13:31N 40°38' W 074°08'0 0.0
2016-Jun-15 12:31N 40°38' W 074°08'0 0.0
2016-Jun-15 11:31N 40°38' W 074°08'5 5.0
2016-Jun-15 10:33N 40°40' W 074°02'1 0.8
2016-Jun-15 09:33N 40°40' W 074°01'0 0.1
2016-Jun-15 08:31N 40°40' W 074°01'8 8.2
2016-Jun-15 07:33N 40°39' W 074°11'4 0.2
2016-Jun-14 13:04N 40°35' W 074°13'5 9.0
2016-Jun-14 12:33N 40°39' W 074°10'2 1.6
2016-Jun-14 11:22N 40°38' W 074°08'1 1.1
2016-Jun-14 10:33N 40°39' W 074°07'4 4.0
2016-Jun-14 09:34N 40°40' W 074°02'1 0.7
2016-Jun-14 08:33N 40°40' W 074°01'0 0.0
2016-Jun-14 07:33N 40°40' W 074°01'0 0.0
2016-Jun-14 04:33N 40°40' W 074°01'0 0.0
2016-Jun-14 03:27N 40°40' W 074°01'0 0.0
2016-Jun-14 02:33N 40°40' W 074°01'  

Dump ship's entire track history